Time;durP1;ratioP1;P1;durP2;ratioP2;P2;SDS_P1;SDS_P2;PMS_P1;PMS_P2;Temp;Humidity;BMP_temperature;BMP_pressure;BME280_temperature;BME280_humidity;BME280_pressure;Samples;Min_cycle;Max_cycle;Signal;HPM_P1;HPM_P2
2023/10/24 00:00:04;;;;;;;;;;;;;;;;;;5049940;28;19932;-70
2023/10/24 00:02:31;;;;;;;;;;;;;;;;;;5051503;28;19925;-70
2023/10/24 00:04:59;;;;;;;;;;;;;;;;;;5050035;28;19979;-70
2023/10/24 00:07:26;;;;;;;;;;;;;;;;;;5051918;28;19928;-70
2023/10/24 00:09:53;;;;;;;;;;;;;;;;;;5049138;28;19929;-70
2023/10/24 00:12:20;;;;;;;;;;;;;;;;;;5050412;28;20353;-70
2023/10/24 00:14:47;;;;;;;;;;;;;;;;;;5049891;28;19935;-70
2023/10/24 00:17:14;;;;;;;;;;;;;;;;;;5050722;28;19927;-69
2023/10/24 00:19:41;;;;;;;;;;;;;;;;;;5050828;28;19971;-70
2023/10/24 00:22:08;;;;;;;;;;;;;;;;;;5051700;28;19925;-70
2023/10/24 00:24:35;;;;;;;;;;;;;;;;;;5049670;28;20000;-70
2023/10/24 00:27:02;;;;;;;;;;;;;;;;;;5051317;28;19971;-70
2023/10/24 00:29:29;;;;;;;;;;;;;;;;;;5036924;28;19928;-70
2023/10/24 00:31:56;;;;;;;;;;;;;;;;;;5046835;28;19925;-70
2023/10/24 00:34:23;;;;;;;;;;;;;;;;;;5051132;28;20376;-71
2023/10/24 00:36:50;;;;;;;;;;;;;;;;;;5051035;28;19925;-70
2023/10/24 00:39:18;;;;;;;;;;;;;;;;;;5049241;28;19963;-71
2023/10/24 00:41:45;;;;;;;;;;;;;;;;;;5051319;28;20450;-71
2023/10/24 00:44:13;;;;;;;;;;;;;;;;;;5049881;28;19951;-71
2023/10/24 00:46:40;;;;;;;;;;;;;;;;;;5049733;28;19947;-71
2023/10/24 00:49:07;;;;;;;;;;;;;;;;;;5051499;28;19971;-70
2023/10/24 00:51:34;;;;;;;;;;;;;;;;;;5053243;28;19971;-69
2023/10/24 00:54:01;;;;;;;;;;;;;;;;;;5053679;28;20401;-70
2023/10/24 00:56:28;;;;;;;;;;;;;;;;;;5055301;28;19929;-70
2023/10/24 00:58:55;;;;;;;;;;;;;;;;;;5052404;28;19925;-69
2023/10/24 01:01:22;;;;;;;;;;;;;;;;;;5053739;28;19936;-69
2023/10/24 01:03:49;;;;;;;;;;;;;;;;;;5056769;28;19924;-70
2023/10/24 01:06:16;;;;;;;;;;;;;;;;;;5054091;28;19924;-68
2023/10/24 01:08:43;;;;;;;;;;;;;;;;;;5054261;28;19925;-68
2023/10/24 01:11:11;;;;;;;;;;;;;;;;;;5051758;28;19929;-68
2023/10/24 01:13:38;;;;;;;;;;;;;;;;;;5053570;28;20264;-68
2023/10/24 01:16:05;;;;;;;;;;;;;;;;;;5052405;28;20391;-70
2023/10/24 01:18:32;;;;;;;;;;;;;;;;;;5047202;28;19929;-69
2023/10/24 01:20:59;;;;;;;;;;;;;;;;;;5054296;28;20296;-69
2023/10/24 01:23:26;;;;;;;;;;;;;;;;;;5055272;28;19928;-69
2023/10/24 01:25:53;;;;;;;;;;;;;;;;;;5055341;28;19964;-69
2023/10/24 01:28:20;;;;;;;;;;;;;;;;;;5056168;28;19971;-69
2023/10/24 01:30:47;;;;;;;;;;;;;;;;;;5056065;28;19971;-69
2023/10/24 01:33:14;;;;;;;;;;;;;;;;;;5054504;28;19936;-69
2023/10/24 01:35:41;;;;;;;;;;;;;;;;;;5054978;28;20354;-70
2023/10/24 01:38:08;;;;;;;;;;;;;;;;;;5055052;28;19924;-70
2023/10/24 01:40:35;;;;;;;;;;;;;;;;;;5054676;28;19947;-70
2023/10/24 01:43:02;;;;;;;;;;;;;;;;;;5054650;28;19979;-70
2023/10/24 01:45:29;;;;;;;;;;;;;;;;;;5052760;28;19932;-70
2023/10/24 01:47:56;;;;;;;;;;;;;;;;;;5054623;28;19925;-70
2023/10/24 01:50:23;;;;;;;;;;;;;;;;;;5053509;28;19990;-70
2023/10/24 01:52:50;;;;;;;;;;;;;;;;;;5054940;28;19924;-70
2023/10/24 01:55:17;;;;;;;;;;;;;;;;;;5056161;28;20346;-71
2023/10/24 01:57:45;;;;;;;;;;;;;;;;;;5054906;28;19924;-70
2023/10/24 02:00:12;;;;;;;;;;;;;;;;;;5052720;28;19951;-71
2023/10/24 02:02:39;;;;;;;;;;;;;;;;;;5054692;28;20291;-70
2023/10/24 02:05:06;;;;;;;;;;;;;;;;;;5053168;28;19932;-71
2023/10/24 02:07:33;;;;;;;;;;;;;;;;;;5051495;28;19959;-71
2023/10/24 02:10:00;;;;;;;;;;;;;;;;;;5053827;28;19933;-71
2023/10/24 02:12:27;;;;;;;;;;;;;;;;;;5049768;28;19971;-71
2023/10/24 02:14:54;;;;;;;;;;;;;;;;;;5053264;28;20369;-72
2023/10/24 02:17:21;;;;;;;;;;;;;;;;;;5052330;28;19933;-70
2023/10/24 02:19:48;;;;;;;;;;;;;;;;;;5053924;28;19924;-69
2023/10/24 02:22:15;;;;;;;;;;;;;;;;;;5053439;28;19925;-69
2023/10/24 02:24:42;;;;;;;;;;;;;;;;;;5051731;28;19924;-69
2023/10/24 02:27:09;;;;;;;;;;;;;;;;;;5050248;28;19932;-70
2023/10/24 02:29:36;;;;;;;;;;;;;;;;;;5057944;28;19944;-70
2023/10/24 02:32:03;;;;;;;;;;;;;;;;;;5052342;28;19925;-69
2023/10/24 02:34:30;;;;;;;;;;;;;;;;;;5048160;28;20020;-70
2023/10/24 02:36:57;;;;;;;;;;;;;;;;;;5053222;28;19928;-71
2023/10/24 02:39:24;;;;;;;;;;;;;;;;;;5051805;28;19932;-70
2023/10/24 02:41:51;;;;;;;;;;;;;;;;;;5051980;28;20291;-70
2023/10/24 02:44:19;;;;;;;;;;;;;;;;;;5047812;28;19971;-70
2023/10/24 02:46:46;;;;;;;;;;;;;;;;;;5054650;28;19924;-71
2023/10/24 02:49:13;;;;;;;;;;;;;;;;;;5053253;28;19962;-72
2023/10/24 02:51:40;;;;;;;;;;;;;;;;;;5049649;28;20019;-71
2023/10/24 02:54:07;;;;;;;;;;;;;;;;;;5052344;28;19935;-71
2023/10/24 02:56:34;;;;;;;;;;;;;;;;;;5052708;28;19924;-71
2023/10/24 02:59:02;;;;;;;;;;;;;;;;;;5050351;28;19936;-70
2023/10/24 03:01:29;;;;;;;;;;;;;;;;;;5050909;28;20012;-71
2023/10/24 03:03:56;;;;;;;;;;;;;;;;;;5053195;28;19928;-71
2023/10/24 03:06:23;;;;;;;;;;;;;;;;;;5050227;28;19991;-70
2023/10/24 03:08:50;;;;;;;;;;;;;;;;;;5049572;28;19928;-70
2023/10/24 03:11:17;;;;;;;;;;;;;;;;;;5044977;28;19925;-70
2023/10/24 03:13:44;;;;;;;;;;;;;;;;;;5050985;28;20280;-71
2023/10/24 03:16:11;;;;;;;;;;;;;;;;;;5051064;28;19975;-71
2023/10/24 03:18:38;;;;;;;;;;;;;;;;;;5051483;28;19971;-71
2023/10/24 03:21:05;;;;;;;;;;;;;;;;;;5053150;28;19932;-71
2023/10/24 03:23:32;;;;;;;;;;;;;;;;;;5052775;28;20003;-71
2023/10/24 03:25:59;;;;;;;;;;;;;;;;;;5052541;28;19979;-70
2023/10/24 03:28:26;;;;;;;;;;;;;;;;;;5052943;28;19924;-71
2023/10/24 03:30:53;;;;;;;;;;;;;;;;;;5052939;28;19936;-71
2023/10/24 03:33:20;;;;;;;;;;;;;;;;;;5051192;28;19974;-71
2023/10/24 03:35:48;;;;;;;;;;;;;;;;;;5053168;28;19931;-71
2023/10/24 03:38:15;;;;;;;;;;;;;;;;;;5053252;28;19932;-71
2023/10/24 03:40:42;;;;;;;;;;;;;;;;;;5047086;28;19932;-71
2023/10/24 03:43:09;;;;;;;;;;;;;;;;;;5052769;28;19947;-71
2023/10/24 03:45:36;;;;;;;;;;;;;;;;;;5044875;28;19929;-71
2023/10/24 03:48:03;;;;;;;;;;;;;;;;;;5047018;28;20441;-71
2023/10/24 03:50:30;;;;;;;;;;;;;;;;;;5047975;28;19965;-71
2023/10/24 03:52:57;;;;;;;;;;;;;;;;;;5052138;28;20565;-70
2023/10/24 03:55:24;;;;;;;;;;;;;;;;;;5052316;28;19979;-70
2023/10/24 03:58:06;;;;;;;;;;;;;;;;;;5014846;28;20159;-70
2023/10/24 04:00:33;;;;;;;;;;;;;;;;;;5050500;28;20374;-71
2023/10/24 04:03:01;;;;;;;;;;;;;;;;;;5051281;28;19928;-70
2023/10/24 04:05:28;;;;;;;;;;;;;;;;;;5051372;28;19964;-70
2023/10/24 04:07:55;;;;;;;;;;;;;;;;;;5050157;28;19932;-70
2023/10/24 04:10:22;;;;;;;;;;;;;;;;;;5050372;28;20349;-70
2023/10/24 04:12:49;;;;;;;;;;;;;;;;;;5051489;28;19924;-71
2023/10/24 04:15:16;;;;;;;;;;;;;;;;;;5051238;28;19931;-71
2023/10/24 04:17:43;;;;;;;;;;;;;;;;;;5050579;28;19978;-71
2023/10/24 04:20:10;;;;;;;;;;;;;;;;;;5048361;28;19928;-71
2023/10/24 04:22:37;;;;;;;;;;;;;;;;;;5049169;28;19933;-71
2023/10/24 04:25:04;;;;;;;;;;;;;;;;;;5049665;28;20391;-70
2023/10/24 04:27:31;;;;;;;;;;;;;;;;;;5048905;28;19968;-70
2023/10/24 04:29:59;;;;;;;;;;;;;;;;;;5049509;28;19931;-68
2023/10/24 04:32:26;;;;;;;;;;;;;;;;;;5051709;28;20019;-69
2023/10/24 04:34:53;;;;;;;;;;;;;;;;;;5049323;28;19980;-69
2023/10/24 04:37:20;;;;;;;;;;;;;;;;;;5049593;28;19925;-69
2023/10/24 04:39:47;;;;;;;;;;;;;;;;;;5048582;28;20461;-69
2023/10/24 04:42:14;;;;;;;;;;;;;;;;;;5047987;28;19940;-70
2023/10/24 04:44:41;;;;;;;;;;;;;;;;;;5050324;28;19936;-70
2023/10/24 04:47:08;;;;;;;;;;;;;;;;;;5050243;28;20434;-69
2023/10/24 04:49:35;;;;;;;;;;;;;;;;;;5048487;28;19928;-69
2023/10/24 04:52:02;;;;;;;;;;;;;;;;;;5048930;28;20382;-69
2023/10/24 04:54:29;;;;;;;;;;;;;;;;;;5047951;28;19932;-69
2023/10/24 04:56:57;;;;;;;;;;;;;;;;;;5045516;28;19929;-69
2023/10/24 04:59:24;;;;;;;;;;;;;;;;;;5048135;28;19925;-69
2023/10/24 05:01:51;;;;;;;;;;;;;;;;;;5051197;28;19929;-69
2023/10/24 05:04:18;;;;;;;;;;;;;;;;;;5051618;28;19925;-69
2023/10/24 05:06:45;;;;;;;;;;;;;;;;;;5050382;28;20441;-69
2023/10/24 05:09:15;;;;;;;;;;;;;;;;;;5050985;28;19925;-70
2023/10/24 05:11:42;;;;;;;;;;;;;;;;;;5046894;28;19924;-68
2023/10/24 05:14:09;;;;;;;;;;;;;;;;;;5043686;28;19925;-70
2023/10/24 05:16:38;;;;;;;;;;;;;;;;;;5046620;28;19929;-70
2023/10/24 05:19:05;;;;;;;;;;;;;;;;;;5057966;28;20406;-70
2023/10/24 05:21:32;;;;;;;;;;;;;;;;;;5050797;28;19949;-70
2023/10/24 05:23:59;;;;;;;;;;;;;;;;;;5050533;28;19933;-70
2023/10/24 05:26:26;;;;;;;;;;;;;;;;;;5050330;28;20020;-70
2023/10/24 05:28:53;;;;;;;;;;;;;;;;;;5051326;28;19987;-70
2023/10/24 05:31:21;;;;;;;;;;;;;;;;;;5050522;28;19925;-71
2023/10/24 05:33:49;;;;;;;;;;;;;;;;;;5048597;28;19925;-70
2023/10/24 05:36:16;;;;;;;;;;;;;;;;;;5057428;28;20380;-70
2023/10/24 05:38:43;;;;;;;;;;;;;;;;;;5054236;28;19928;-70
2023/10/24 05:41:11;;;;;;;;;;;;;;;;;;5051105;28;19928;-70
2023/10/24 05:43:39;;;;;;;;;;;;;;;;;;5055265;28;19925;-70
2023/10/24 05:46:06;;;;;;;;;;;;;;;;;;5052872;28;20424;-70
2023/10/24 05:48:33;;;;;;;;;;;;;;;;;;5051241;28;19936;-70
2023/10/24 05:51:00;;;;;;;;;;;;;;;;;;5052812;28;19928;-70
2023/10/24 05:53:27;;;;;;;;;;;;;;;;;;5061648;28;20302;-70
2023/10/24 05:55:54;;;;;;;;;;;;;;;;;;5049646;28;20303;-70
2023/10/24 05:58:23;;;;;;;;;;;;;;;;;;5048799;28;19967;-72
2023/10/24 06:00:50;;;;;;;;;;;;;;;;;;5051533;28;19925;-71
2023/10/24 06:03:18;;;;;;;;;;;;;;;;;;5042833;28;20367;-71
2023/10/24 06:05:46;;;;;;;;;;;;;;;;;;5050418;28;19932;-71
2023/10/24 06:08:13;;;;;;;;;;;;;;;;;;5051853;28;20375;-71
2023/10/24 06:10:42;;;;;;;;;;;;;;;;;;5051530;28;19978;-72
2023/10/24 06:13:09;;;;;;;;;;;;;;;;;;5050590;28;19937;-70
2023/10/24 06:15:36;;;;;;;;;;;;;;;;;;5048460;28;19932;-69
2023/10/24 06:18:03;;;;;;;;;;;;;;;;;;5050554;28;19998;-72
2023/10/24 06:20:30;;;;;;;;;;;;;;;;;;5052535;28;20341;-70
2023/10/24 06:22:57;;;;;;;;;;;;;;;;;;5050806;28;19994;-71
2023/10/24 06:25:24;;;;;;;;;;;;;;;;;;5049277;28;19925;-72
2023/10/24 06:27:51;;;;;;;;;;;;;;;;;;5052700;28;19936;-70
2023/10/24 06:30:18;;;;;;;;;;;;;;;;;;5052666;28;19928;-71
2023/10/24 06:32:45;;;;;;;;;;;;;;;;;;5052879;28;20387;-67
2023/10/24 06:35:15;;;;;;;;;;;;;;;;;;5051419;28;19949;-70
2023/10/24 06:37:42;;;;;;;;;;;;;;;;;;5051805;28;20013;-70
2023/10/24 06:40:09;;;;;;;;;;;;;;;;;;5048949;28;19925;-70
2023/10/24 06:42:36;;;;;;;;;;;;;;;;;;5044587;28;19940;-69
2023/10/24 06:45:03;;;;;;;;;;;;;;;;;;5049638;28;19929;-71
2023/10/24 06:47:31;;;;;;;;;;;;;;;;;;5043265;28;20360;-70
2023/10/24 06:49:58;;;;;;;;;;;;;;;;;;5049179;28;21475;-71
2023/10/24 06:52:25;;;;;;;;;;;;;;;;;;5051811;28;19924;-70
2023/10/24 06:54:52;;;;;;;;;;;;;;;;;;5051302;28;19924;-71
2023/10/24 06:57:19;;;;;;;;;;;;;;;;;;5048211;28;19925;-70
2023/10/24 06:59:46;;;;;;;;;;;;;;;;;;5044582;28;19924;-71
2023/10/24 07:02:13;;;;;;;;;;;;;;;;;;5045930;28;19972;-70
2023/10/24 07:04:40;;;;;;;;;;;;;;;;;;5042348;28;19925;-71
2023/10/24 07:07:07;;;;;;;;;;;;;;;;;;5043874;28;19924;-71
2023/10/24 07:09:34;;;;;;;;;;;;;;;;;;5038350;28;20420;-70
2023/10/24 07:12:01;;;;;;;;;;;;;;;;;;5044403;28;20398;-70
2023/10/24 07:14:28;;;;;;;;;;;;;;;;;;5048292;28;20387;-70
2023/10/24 07:16:55;;;;;;;;;;;;;;;;;;5045452;28;19984;-70
2023/10/24 07:19:22;;;;;;;;;;;;;;;;;;5052465;28;19932;-71
2023/10/24 07:21:49;;;;;;;;;;;;;;;;;;5050899;28;19932;-71
2023/10/24 07:24:16;;;;;;;;;;;;;;;;;;5049690;28;19932;-71
2023/10/24 07:26:43;;;;;;;;;;;;;;;;;;5048196;28;19925;-70
2023/10/24 07:29:10;;;;;;;;;;;;;;;;;;5049092;28;19925;-70
2023/10/24 07:31:37;;;;;;;;;;;;;;;;;;5049644;28;20421;-71
2023/10/24 07:34:04;;;;;;;;;;;;;;;;;;5047747;28;19925;-70
2023/10/24 07:36:32;;;;;;;;;;;;;;;;;;5048372;28;19925;-70
2023/10/24 07:39:00;;;;;;;;;;;;;;;;;;5045274;28;19932;-71
2023/10/24 07:41:27;;;;;;;;;;;;;;;;;;5046640;28;20390;-70
2023/10/24 07:43:54;;;;;;;;;;;;;;;;;;5056139;22;19964;-71
2023/10/24 07:46:21;;;;;;;;;;;;;;;;;;5053566;28;19933;-70
2023/10/24 07:48:51;;;;;;;;;;;;;;;;;;5042669;28;19929;-70
2023/10/24 07:51:20;;;;;;;;;;;;;;;;;;5042372;28;19925;-71
2023/10/24 07:53:47;;;;;;;;;;;;;;;;;;5041182;28;19932;-72
2023/10/24 07:56:14;;;;;;;;;;;;;;;;;;5048930;28;19932;-71
2023/10/24 07:58:41;;;;;;;;;;;;;;;;;;5054029;22;19968;-71
2023/10/24 08:01:08;;;;;;;;;;;;;;;;;;5052467;28;20380;-71
2023/10/24 08:03:35;;;;;;;;;;;;;;;;;;5047354;28;19990;-71
2023/10/24 08:06:03;;;;;;;;;;;;;;;;;;5043568;28;20338;-73
2023/10/24 08:08:30;;;;;;;;;;;;;;;;;;5050705;28;21471;-71
2023/10/24 08:10:57;;;;;;;;;;;;;;;;;;5047073;28;19932;-71
2023/10/24 08:13:24;;;;;;;;;;;;;;;;;;5045417;28;20543;-71
2023/10/24 08:15:53;;;;;;;;;;;;;;;;;;5053217;22;19925;-71
2023/10/24 08:18:20;;;;;;;;;;;;;;;;;;5045298;28;20334;-71
2023/10/24 08:20:47;;;;;;;;;;;;;;;;;;5047147;28;19924;-70
2023/10/24 08:23:14;;;;;;;;;;;;;;;;;;5048124;28;20011;-71
2023/10/24 08:25:41;;;;;;;;;;;;;;;;;;5055031;28;20199;-71
2023/10/24 08:28:08;;;;;;;;;;;;;;;;;;5046704;28;19986;-70
2023/10/24 08:30:35;;;;;;;;;;;;;;;;;;5046320;28;19978;-71
2023/10/24 08:33:02;;;;;;;;;;;;;;;;;;5048910;28;19968;-71
2023/10/24 08:35:29;;;;;;;;;;;;;;;;;;5044625;28;19925;-71
2023/10/24 08:37:56;;;;;;;;;;;;;;;;;;5043992;28;19948;-71
2023/10/24 08:40:23;;;;;;;;;;;;;;;;;;5045080;28;19925;-71
2023/10/24 08:42:50;;;;;;;;;;;;;;;;;;5044001;28;19940;-72
2023/10/24 08:45:17;;;;;;;;;;;;;;;;;;5045662;28;19971;-71
2023/10/24 08:47:45;;;;;;;;;;;;;;;;;;5041744;28;19964;-70
2023/10/24 08:50:13;;;;;;;;;;;;;;;;;;5042614;28;19933;-71
2023/10/24 08:52:40;;;;;;;;;;;;;;;;;;5044021;28;19925;-71
2023/10/24 08:55:07;;;;;;;;;;;;;;;;;;5044784;28;20070;-69
2023/10/24 08:57:34;;;;;;;;;;;;;;;;;;5042759;28;20448;-70
2023/10/24 09:00:01;;;;;;;;;;;;;;;;;;5049139;28;19924;-70
2023/10/24 09:02:29;;;;;;;;;;;;;;;;;;5041029;28;19929;-70
2023/10/24 09:04:56;;;;;;;;;;;;;;;;;;5042223;28;19925;-70
2023/10/24 09:07:23;;;;;;;;;;;;;;;;;;5046731;28;20281;-71
2023/10/24 09:09:50;;;;;;;;;;;;;;;;;;5045180;28;19967;-71
2023/10/24 09:12:17;;;;;;;;;;;;;;;;;;5046188;28;19976;-71
2023/10/24 09:14:44;;;;;;;;;;;;;;;;;;5052178;28;20004;-71
2023/10/24 09:17:11;;;;;;;;;;;;;;;;;;5056913;28;19924;-70
2023/10/24 09:19:39;;;;;;;;;;;;;;;;;;5043828;28;19968;-69
2023/10/24 09:22:06;;;;;;;;;;;;;;;;;;5052773;28;19968;-70
2023/10/24 09:24:35;;;;;;;;;;;;;;;;;;5058166;28;19946;-69
2023/10/24 09:27:02;;;;;;;;;;;;;;;;;;5056077;28;19929;-70
2023/10/24 09:29:29;;;;;;;;;;;;;;;;;;5047401;28;19925;-70
2023/10/24 09:31:58;;;;;;;;;;;;;;;;;;5048725;28;19929;-69
2023/10/24 09:34:26;;;;;;;;;;;;;;;;;;5052224;28;20391;-69
2023/10/24 09:36:53;;;;;;;;;;;;;;;;;;5048452;28;19928;-69
2023/10/24 09:39:20;;;;;;;;;;;;;;;;;;5055990;22;19924;-70
2023/10/24 09:41:48;;;;;;;;;;;;;;;;;;5052634;28;20038;-70
2023/10/24 09:44:15;;;;;;;;;;;;;;;;;;5048237;28;20032;-70
2023/10/24 09:46:42;;;;;;;;;;;;;;;;;;5050979;28;19932;-71
2023/10/24 09:49:09;;;;;;;;;;;;;;;;;;5048883;28;19963;-70
2023/10/24 09:51:36;;;;;;;;;;;;;;;;;;5045621;28;19932;-70
2023/10/24 09:54:03;;;;;;;;;;;;;;;;;;5049517;28;19929;-70
2023/10/24 09:56:30;;;;;;;;;;;;;;;;;;5051511;28;20023;-71
2023/10/24 09:58:57;;;;;;;;;;;;;;;;;;5048797;28;19932;-70
2023/10/24 10:01:24;;;;;;;;;;;;;;;;;;5048676;28;20272;-69
2023/10/24 10:03:51;;;;;;;;;;;;;;;;;;5047262;28;19986;-70
2023/10/24 10:06:19;;;;;;;;;;;;;;;;;;5052088;28;20426;-69
2023/10/24 10:08:46;;;;;;;;;;;;;;;;;;5049315;28;20151;-69
2023/10/24 10:11:13;;;;;;;;;;;;;;;;;;5051707;28;19925;-69
2023/10/24 10:13:42;;;;;;;;;;;;;;;;;;5045955;28;19971;-69
2023/10/24 10:16:09;;;;;;;;;;;;;;;;;;5044039;28;19925;-68
2023/10/24 10:18:36;;;;;;;;;;;;;;;;;;5049735;28;19933;-70
2023/10/24 10:21:03;;;;;;;;;;;;;;;;;;5052498;28;20391;-70
2023/10/24 10:23:30;;;;;;;;;;;;;;;;;;5052077;28;19987;-70
2023/10/24 10:25:58;;;;;;;;;;;;;;;;;;5052865;28;19944;-71
2023/10/24 10:28:24;;;;;;;;;;;;;;;;;;5050888;28;19986;-70
2023/10/24 10:30:51;;;;;;;;;;;;;;;;;;5049266;28;19928;-70
2023/10/24 10:33:18;;;;;;;;;;;;;;;;;;5053311;28;20269;-68
2023/10/24 10:35:45;;;;;;;;;;;;;;;;;;5052817;28;19925;-69
2023/10/24 10:38:12;;;;;;;;;;;;;;;;;;5051802;28;19982;-68
2023/10/24 10:40:39;;;;;;;;;;;;;;;;;;5050578;28;19925;-68
2023/10/24 10:43:06;;;;;;;;;;;;;;;;;;5056930;28;19925;-69
2023/10/24 10:45:33;;;;;;;;;;;;;;;;;;5049348;28;19939;-71
2023/10/24 10:48:00;;;;;;;;;;;;;;;;;;5047230;28;20382;-70
2023/10/24 10:50:27;;;;;;;;;;;;;;;;;;5050779;28;19928;-70
2023/10/24 10:52:54;;;;;;;;;;;;;;;;;;5053306;28;19925;-71
2023/10/24 10:55:21;;;;;;;;;;;;;;;;;;5053519;28;20411;-71
2023/10/24 10:57:48;;;;;;;;;;;;;;;;;;5052759;28;19964;-71
2023/10/24 11:00:15;;;;;;;;;;;;;;;;;;5052444;28;20395;-71
2023/10/24 11:02:42;;;;;;;;;;;;;;;;;;5048237;28;19990;-71
2023/10/24 11:05:09;;;;;;;;;;;;;;;;;;5047797;28;19925;-71
2023/10/24 11:07:36;;;;;;;;;;;;;;;;;;5050853;28;19925;-71
2023/10/24 11:10:03;;;;;;;;;;;;;;;;;;5051139;28;20479;-70
2023/10/24 11:12:30;;;;;;;;;;;;;;;;;;5045329;28;19925;-71
2023/10/24 11:14:57;;;;;;;;;;;;;;;;;;5051544;28;19925;-70
2023/10/24 11:17:24;;;;;;;;;;;;;;;;;;5054404;28;19959;-70
2023/10/24 11:19:51;;;;;;;;;;;;;;;;;;5051407;28;19932;-70
2023/10/24 11:22:18;;;;;;;;;;;;;;;;;;5048755;28;19976;-70
2023/10/24 11:24:45;;;;;;;;;;;;;;;;;;5048057;28;19925;-71
2023/10/24 11:27:12;;;;;;;;;;;;;;;;;;5049658;28;20002;-70
2023/10/24 11:29:39;;;;;;;;;;;;;;;;;;5046877;28;19932;-70
2023/10/24 11:32:06;;;;;;;;;;;;;;;;;;5049471;28;19960;-71
2023/10/24 11:34:33;;;;;;;;;;;;;;;;;;5049023;28;20549;-69
2023/10/24 11:37:00;;;;;;;;;;;;;;;;;;5050299;28;19999;-68
2023/10/24 11:39:29;;;;;;;;;;;;;;;;;;5049069;28;19978;-67
2023/10/24 11:41:57;;;;;;;;;;;;;;;;;;5043013;28;19932;-68
2023/10/24 11:44:24;;;;;;;;;;;;;;;;;;5045470;28;19964;-66
2023/10/24 11:46:51;;;;;;;;;;;;;;;;;;5051547;28;19925;-66
2023/10/24 11:49:18;;;;;;;;;;;;;;;;;;5048015;28;19924;-67
2023/10/24 11:51:45;;;;;;;;;;;;;;;;;;5048937;28;19983;-67
2023/10/24 11:54:12;;;;;;;;;;;;;;;;;;5049441;28;19979;-68
2023/10/24 11:56:39;;;;;;;;;;;;;;;;;;5050773;28;19972;-68
2023/10/24 11:59:06;;;;;;;;;;;;;;;;;;5048617;28;19932;-68
2023/10/24 12:01:33;;;;;;;;;;;;;;;;;;5044322;28;20338;-68
2023/10/24 12:04:00;;;;;;;;;;;;;;;;;;5048146;28;20019;-67
2023/10/24 12:06:27;;;;;;;;;;;;;;;;;;5047721;28;19979;-67
2023/10/24 12:08:54;;;;;;;;;;;;;;;;;;5041129;28;20014;-68
2023/10/24 12:11:21;;;;;;;;;;;;;;;;;;5052045;28;19994;-68
2023/10/24 12:13:48;;;;;;;;;;;;;;;;;;5047474;28;19936;-67
2023/10/24 12:16:15;;;;;;;;;;;;;;;;;;5049172;28;19959;-68
2023/10/24 12:18:43;;;;;;;;;;;;;;;;;;5049512;28;19928;-68
2023/10/24 12:21:10;;;;;;;;;;;;;;;;;;5042134;28;20411;-67
2023/10/24 12:23:37;;;;;;;;;;;;;;;;;;5047320;28;19979;-68
2023/10/24 12:26:05;;;;;;;;;;;;;;;;;;5049401;28;20490;-69
2023/10/24 12:28:32;;;;;;;;;;;;;;;;;;5045882;28;20015;-69
2023/10/24 12:30:59;;;;;;;;;;;;;;;;;;5043790;28;20388;-69
2023/10/24 12:33:28;;;;;;;;;;;;;;;;;;5049497;28;19925;-69
2023/10/24 12:35:55;;;;;;;;;;;;;;;;;;5045064;28;19932;-69
2023/10/24 12:38:22;;;;;;;;;;;;;;;;;;5043096;28;20027;-70
2023/10/24 12:40:49;;;;;;;;;;;;;;;;;;5046167;28;20371;-71
2023/10/24 12:43:16;;;;;;;;;;;;;;;;;;5045559;28;19925;-70
2023/10/24 12:45:43;;;;;;;;;;;;;;;;;;5045178;28;19970;-70
2023/10/24 12:48:11;;;;;;;;;;;;;;;;;;5045085;28;19929;-70
2023/10/24 12:50:38;;;;;;;;;;;;;;;;;;5041707;28;19925;-70
2023/10/24 12:53:05;;;;;;;;;;;;;;;;;;5045105;28;19928;-70
2023/10/24 12:55:32;;;;;;;;;;;;;;;;;;5050588;28;19929;-70
2023/10/24 12:57:59;;;;;;;;;;;;;;;;;;5045678;28;20400;-70
2023/10/24 13:00:26;;;;;;;;;;;;;;;;;;5045061;28;19933;-70
2023/10/24 13:02:53;;;;;;;;;;;;;;;;;;5040327;28;20465;-67
2023/10/24 13:05:21;;;;;;;;;;;;;;;;;;5044497;28;19929;-66
2023/10/24 13:07:48;;;;;;;;;;;;;;;;;;5049779;28;19972;-66
2023/10/24 13:10:15;;;;;;;;;;;;;;;;;;5047251;28;19925;-66
2023/10/24 13:12:42;;;;;;;;;;;;;;;;;;5048638;28;19931;-66
2023/10/24 13:15:09;;;;;;;;;;;;;;;;;;5046465;28;19968;-66
2023/10/24 13:17:36;;;;;;;;;;;;;;;;;;5046829;28;19968;-66
2023/10/24 13:20:03;;;;;;;;;;;;;;;;;;5046003;28;19968;-66
2023/10/24 13:22:30;;;;;;;;;;;;;;;;;;5049876;28;20049;-67
2023/10/24 13:24:58;;;;;;;;;;;;;;;;;;5046669;28;20006;-66
2023/10/24 13:27:25;;;;;;;;;;;;;;;;;;5047790;28;19968;-67
2023/10/24 13:29:52;;;;;;;;;;;;;;;;;;5045930;28;20316;-68
2023/10/24 13:32:19;;;;;;;;;;;;;;;;;;5047021;28;20006;-68
2023/10/24 13:34:46;;;;;;;;;;;;;;;;;;5049801;28;20379;-68
2023/10/24 13:37:13;;;;;;;;;;;;;;;;;;5047409;28;19925;-68
2023/10/24 13:39:40;;;;;;;;;;;;;;;;;;5046301;28;19925;-68
2023/10/24 13:42:07;;;;;;;;;;;;;;;;;;5045992;28;20380;-68
2023/10/24 13:44:34;;;;;;;;;;;;;;;;;;5044247;28;20344;-68
2023/10/24 13:47:01;;;;;;;;;;;;;;;;;;5036202;28;19973;-68
2023/10/24 13:49:30;;;;;;;;;;;;;;;;;;5042933;28;19936;-67
2023/10/24 13:51:57;;;;;;;;;;;;;;;;;;5042834;28;20380;-68
2023/10/24 13:54:24;;;;;;;;;;;;;;;;;;5045485;28;19937;-69
2023/10/24 13:56:52;;;;;;;;;;;;;;;;;;5049290;28;19929;-68
2023/10/24 13:59:19;;;;;;;;;;;;;;;;;;5050520;28;19959;-67
2023/10/24 14:01:46;;;;;;;;;;;;;;;;;;5049927;28;19924;-67
2023/10/24 14:04:13;;;;;;;;;;;;;;;;;;5052566;28;19971;-68
2023/10/24 14:06:40;;;;;;;;;;;;;;;;;;5047486;28;19928;-68
2023/10/24 14:09:07;;;;;;;;;;;;;;;;;;5041236;28;19972;-67
2023/10/24 14:11:34;;;;;;;;;;;;;;;;;;5052307;28;19933;-67
2023/10/24 14:14:01;;;;;;;;;;;;;;;;;;5051121;28;19928;-68
2023/10/24 14:16:28;;;;;;;;;;;;;;;;;;5050317;28;19925;-68
2023/10/24 14:18:55;;;;;;;;;;;;;;;;;;5049971;28;19933;-68
2023/10/24 14:21:22;;;;;;;;;;;;;;;;;;5052840;28;20265;-69
2023/10/24 14:23:49;;;;;;;;;;;;;;;;;;5053336;28;19986;-70
2023/10/24 14:26:16;;;;;;;;;;;;;;;;;;5047299;28;19932;-68
2023/10/24 14:28:43;;;;;;;;;;;;;;;;;;5039989;28;19925;-70
2023/10/24 14:31:10;;;;;;;;;;;;;;;;;;5040268;28;19979;-67
2023/10/24 14:33:38;;;;;;;;;;;;;;;;;;5043071;28;19971;-68
2023/10/24 14:36:05;;;;;;;;;;;;;;;;;;5046632;28;19998;-67
2023/10/24 14:38:32;;;;;;;;;;;;;;;;;;5038258;28;19991;-68
2023/10/24 14:40:59;;;;;;;;;;;;;;;;;;5045686;28;20024;-67
2023/10/24 14:43:26;;;;;;;;;;;;;;;;;;5044945;28;19925;-68
2023/10/24 14:45:54;;;;;;;;;;;;;;;;;;5041789;28;20462;-68
2023/10/24 14:48:20;;;;;;;;;;;;;;;;;;5045744;28;19935;-68
2023/10/24 14:50:48;;;;;;;;;;;;;;;;;;5044119;28;19978;-68
2023/10/24 14:53:16;;;;;;;;;;;;;;;;;;5038974;28;19925;-68
2023/10/24 14:55:43;;;;;;;;;;;;;;;;;;5042000;28;19940;-68
2023/10/24 14:58:10;;;;;;;;;;;;;;;;;;5042419;28;19929;-68
2023/10/24 15:00:37;;;;;;;;;;;;;;;;;;5041486;28;19929;-68
2023/10/24 15:03:04;;;;;;;;;;;;;;;;;;5048599;28;19932;-69
2023/10/24 15:05:31;;;;;;;;;;;;;;;;;;5051040;28;19948;-68
2023/10/24 15:07:58;;;;;;;;;;;;;;;;;;5050657;28;19978;-68
2023/10/24 15:10:25;;;;;;;;;;;;;;;;;;5048098;28;20473;-68
2023/10/24 15:12:53;;;;;;;;;;;;;;;;;;5047816;28;19929;-68
2023/10/24 15:15:21;;;;;;;;;;;;;;;;;;5058510;22;19931;-69
2023/10/24 15:17:47;;;;;;;;;;;;;;;;;;5063442;28;19974;-67
2023/10/24 15:20:15;;;;;;;;;;;;;;;;;;5068085;28;19968;-66
2023/10/24 15:22:42;;;;;;;;;;;;;;;;;;5064240;28;19928;-68
2023/10/24 15:25:09;;;;;;;;;;;;;;;;;;5042606;28;19940;-67
2023/10/24 15:27:36;;;;;;;;;;;;;;;;;;5043935;28;19955;-66
2023/10/24 15:30:05;;;;;;;;;;;;;;;;;;5045513;28;19926;-67
2023/10/24 15:32:32;;;;;;;;;;;;;;;;;;5047426;28;19928;-66
2023/10/24 15:34:59;;;;;;;;;;;;;;;;;;5053066;28;19967;-66
2023/10/24 15:37:26;;;;;;;;;;;;;;;;;;5056011;28;19975;-69
2023/10/24 15:39:53;;;;;;;;;;;;;;;;;;5049450;28;19925;-68
2023/10/24 15:42:20;;;;;;;;;;;;;;;;;;5056085;28;19960;-68
2023/10/24 15:44:47;;;;;;;;;;;;;;;;;;5048073;28;19926;-68
2023/10/24 15:47:14;;;;;;;;;;;;;;;;;;5059296;28;19924;-68
2023/10/24 15:49:41;;;;;;;;;;;;;;;;;;5058400;28;19925;-69
2023/10/24 15:52:08;;;;;;;;;;;;;;;;;;5045767;28;19972;-69
2023/10/24 15:54:37;;;;;;;;;;;;;;;;;;5048959;28;19929;-69
2023/10/24 15:57:04;;;;;;;;;;;;;;;;;;5045884;28;19960;-68
2023/10/24 15:59:31;;;;;;;;;;;;;;;;;;5049546;28;19933;-68
2023/10/24 16:01:59;;;;;;;;;;;;;;;;;;5059507;28;19929;-68
2023/10/24 16:04:26;;;;;;;;;;;;;;;;;;5056869;28;19934;-68
2023/10/24 16:06:53;;;;;;;;;;;;;;;;;;5049698;28;19925;-68
2023/10/24 16:09:20;;;;;;;;;;;;;;;;;;5048792;28;19932;-68
2023/10/24 16:11:47;;;;;;;;;;;;;;;;;;5047310;28;19956;-68
2023/10/24 16:14:14;;;;;;;;;;;;;;;;;;5046787;28;19925;-69
2023/10/24 16:16:41;;;;;;;;;;;;;;;;;;5041630;28;20445;-69
2023/10/24 16:19:08;;;;;;;;;;;;;;;;;;5041839;28;19979;-69
2023/10/24 16:21:35;;;;;;;;;;;;;;;;;;5055131;28;20403;-68
2023/10/24 16:24:02;;;;;;;;;;;;;;;;;;5048596;28;19925;-69
2023/10/24 16:26:29;;;;;;;;;;;;;;;;;;5054675;28;20358;-69
2023/10/24 16:28:56;;;;;;;;;;;;;;;;;;5055565;28;19962;-69
2023/10/24 16:31:23;;;;;;;;;;;;;;;;;;5045341;28;19934;-69
2023/10/24 16:33:50;;;;;;;;;;;;;;;;;;5053078;28;20383;-69
2023/10/24 16:36:17;;;;;;;;;;;;;;;;;;5050630;28;19933;-68
2023/10/24 16:38:44;;;;;;;;;;;;;;;;;;5050419;28;19924;-68
2023/10/24 16:41:11;;;;;;;;;;;;;;;;;;5049550;28;20609;-68
2023/10/24 16:43:40;;;;;;;;;;;;;;;;;;5045962;28;19925;-68